Thunder radar more information blitzortung!


Radar de pluja more information rain snow radar


Visita la nostra xarxa de llocs de meteo:

Template documentation
and downloads

And another site



No particular awareness of the weather is required.    There are no Weather-warnings

Pagina Historial Weather Underground text

Diari Resum Agost 7, 2017 Unitats:  Mètric    Imperial   Tant
« Previous Dia
SegĂźent Dia »
Diari Setmana Mensual Anual Personalitzada
  Maxima: Minima: Media:
Temperatura: -17.8 °C -5.7 °C -2.1 °C
Punt de rosada: -17.8 °C -9.3 °C -7.4 °C
Humitat: Humidity % 38 % 57 %
Wind Speed: 0 km/h 0 km/h 5.5 km/h
RĂ fegues de vent: 0 km/h - -
Vent:- - South
Pression baro: 0 hPa 34097 hPa -
Precipitacions: 0 mm    
Historical Graphs
 
 
Dades de taula per Agost 7, 2017
Temps Temperatura Punt de rosada Pression baro Vent Wind Speed RĂ fegues de vent Humitat Rainfall Rate (Hourly)
-17.8 °C -17.8 °C 0 hPa Calm     Humidity % 0 mm
00:03 -4.6 °C -7.4 °C 34395 hPa WSW 6 km/h 6 km/h 73 % 0 mm
00:05 -5.4 °C -7.7 °C 34361.1 hPa SW 2.6 km/h 2.6 km/h 78 % 0 mm
00:08 -4.6 °C -7.4 °C 34395 hPa SW 6 km/h 6 km/h 73 % 0 mm
00:25 -5.5 °C -7.7 °C 34361.1 hPa SW 5.1 km/h 5.1 km/h 78 % 0 mm
00:35 -5.6 °C -7.8 °C 34361.1 hPa SW 2.6 km/h 5.1 km/h 78 % 0 mm
00:45 -5.6 °C -7.7 °C 34361.1 hPa SW 2.6 km/h 5.1 km/h 79 % 0 mm
00:55 -5.6 °C -7.7 °C 34361.1 hPa Calm     79 % 0 mm
01:05 -5.6 °C -7.7 °C 34361.1 hPa Calm     79 % 0 mm
01:15 -5.6 °C -7.7 °C 34361.1 hPa Calm     79 % 0 mm
01:25 -5.6 °C -7.7 °C 34361.1 hPa Calm     79 % 0 mm
01:35 -5.7 °C -7.8 °C 34361.1 hPa Calm     79 % 0 mm
01:45 -5.7 °C -7.7 °C 34361.1 hPa Calm     80 % 0 mm
01:55 -5.7 °C -7.7 °C 34361.1 hPa Calm   2.6 km/h 80 % 0 mm
02:05 -5.7 °C -7.7 °C 34361.1 hPa Calm   2.6 km/h 80 % 0 mm
02:15 -5.6 °C -7.6 °C 34361.1 hPa Calm   2.6 km/h 80 % 0 mm
02:25 -5.6 °C -7.6 °C 34361.1 hPa Calm     80 % 0 mm
02:35 -5.6 °C -7.6 °C 34327.3 hPa Calm     80 % 0 mm
02:45 -5.4 °C -7.6 °C 34327.3 hPa East 2.6 km/h 5.1 km/h 79 % 0 mm
02:55 -5.3 °C -7.4 °C 34327.3 hPa Calm   2.6 km/h 79 % 0 mm
03:05 -5.2 °C -7.4 °C 34327.3 hPa SW 5.1 km/h 5.1 km/h 78 % 0 mm
03:15 -5.2 °C -7.4 °C 34327.3 hPa SW 5.1 km/h 5.1 km/h 78 % 0 mm
03:25 -5 °C -7.3 °C 34361.1 hPa Calm   5.1 km/h 78 % 0 mm
03:35 -4.6 °C -7.1 °C 34361.1 hPa SSW 5.1 km/h 5.1 km/h 76 % 0 mm
03:45 -4.3 °C -6.9 °C 34361.1 hPa Calm   2.6 km/h 75 % 0 mm
03:55 -4.2 °C -6.8 °C 34361.1 hPa South 2.6 km/h 7.7 km/h 75 % 0 mm
04:05 -4 °C -6.8 °C 34327.3 hPa South 2.6 km/h 7.7 km/h 74 % 0 mm
04:15 -3.7 °C -6.7 °C 34327.3 hPa Calm   5.1 km/h 72 % 0 mm
09:15 -0.7 °C -7.2 °C 34293.4 hPa SSW 25.9 km/h 28.5 km/h 50 % 0 mm
09:17 -3.5 °C -6.8 °C 34327.3 hPa SSE 6.8 km/h 6.8 km/h 70 % 0 mm
09:18 -3.5 °C -6.8 °C 34327.3 hPa SSE 6.8 km/h 6.8 km/h 70 % 0 mm
09:23 -3.4 °C -6.7 °C 34327.3 hPa SE 3.1 km/h   70 % 0 mm
09:25 -0.7 °C -7.1 °C 34293.4 hPa SW 20.8 km/h 23.3 km/h 50 % 0 mm
09:28 -3.3 °C -6.7 °C 34327.3 hPa ESE 6 km/h 6 km/h 69 % 0 mm
09:33 -3.1 °C -6.7 °C 34327.3 hPa SSW 3.1 km/h   67 % 0 mm
09:35 -0.4 °C -7.1 °C 34256.2 hPa SW 7.7 km/h 15.6 km/h 49 % 0 mm
09:38 -2.9 °C -6.6 °C 34327.3 hPa North 6 km/h 6 km/h 67 % 0 mm
09:43 -2.9 °C -6.6 °C 34327.3 hPa WSW 6.3 km/h 6.3 km/h 67 % 0 mm
09:45 -0.2 °C -6.8 °C 34256.2 hPa SW 5.1 km/h 12.9 km/h 49 % 0 mm
09:48 -2.8 °C -6.8 °C 34327.3 hPa SSW 5.6 km/h   65 % 0 mm
09:55 -0.1 °C -6.9 °C 34256.2 hPa SW 20.8 km/h 20.8 km/h 48 % 0 mm
09:58 -2.6 °C -6.7 °C 34327.3 hPa WSW 11.1 km/h 11.1 km/h 64 % 0 mm
10:03 -2.8 °C -6.9 °C 34327.3 hPa SSW 15 km/h 15 km/h 64 % 0 mm
10:05 0 °C -6.9 °C 34256.2 hPa SSW 12.9 km/h 28.5 km/h 48 % 0 mm
10:08 -2.7 °C -7 °C 34327.3 hPa WSW 11.9 km/h 11.9 km/h 63 % 0 mm
10:13 -2.6 °C -6.8 °C 34327.3 hPa SW 11.9 km/h 11.9 km/h 63 % 0 mm
10:15 -0.2 °C -7.1 °C 34256.2 hPa SW 5.1 km/h 20.8 km/h 48 % 0 mm
10:18 -2.3 °C -6.8 °C 34327.3 hPa ENE 6 km/h 6 km/h 62 % 0 mm
10:23 -2.1 °C -6.7 °C 34327.3 hPa WSW 15 km/h 15 km/h 61 % 0 mm
10:25 0 °C -6.9 °C 34256.2 hPa SW 7.7 km/h 20.8 km/h 48 % 0 mm
10:28 -2 °C -6.6 °C 34327.3 hPa West 9 km/h 9 km/h 61 % 0 mm
10:33 -2.1 °C -6.8 °C 34327.3 hPa West 11.9 km/h 11.9 km/h 60 % 0 mm
10:35 0.1 °C -6.8 °C 34256.2 hPa SW 7.7 km/h 23.3 km/h 48 % 0 mm
10:38 -1.9 °C -6.8 °C 34327.3 hPa SW 12.2 km/h 12.2 km/h 59 % 0 mm
10:43 -1.9 °C -7 °C 34327.3 hPa WSW 9 km/h 9 km/h 58 % 0 mm
10:45 -0.3 °C -7.1 °C 34256.2 hPa SW 15.6 km/h 20.8 km/h 48 % 0 mm
10:48 -2.1 °C -7 °C 34327.3 hPa West 15 km/h 15 km/h 59 % 0 mm
10:53 -2.2 °C -7.1 °C 34327.3 hPa West 6 km/h 6 km/h 59 % 0 mm
10:55 -0.2 °C -7.1 °C 34256.2 hPa SW 12.9 km/h 12.9 km/h 48 % 0 mm
10:58 -2.2 °C -7.2 °C 34327.3 hPa SW 6 km/h 6 km/h 58 % 0 mm
11:03 -2 °C -7.1 °C 34327.3 hPa SW 6 km/h 6 km/h 58 % 0 mm
11:05 -0.3 °C -6.9 °C 34256.2 hPa SW 7.7 km/h 20.8 km/h 49 % 0 mm
11:08 -1.7 °C -7.1 °C 34327.3 hPa WSW 9 km/h 9 km/h 56 % 0 mm
11:13 -1.4 °C -6.8 °C 34327.3 hPa West 11.9 km/h 11.9 km/h 56 % 0 mm
11:15 -0.4 °C -7.1 °C 34256.2 hPa SW 15.6 km/h 20.8 km/h 49 % 0 mm
11:18 -1.4 °C -7.2 °C 34327.3 hPa West 15 km/h 15 km/h 54 % 0 mm
11:23 -1.2 °C -6.9 °C 34327.3 hPa South 11.9 km/h 11.9 km/h 54 % 0 mm
11:25 -0.5 °C -7.3 °C 34256.2 hPa SW 18.2 km/h 33.6 km/h 48 % 0 mm
11:28 -1.4 °C -7.3 °C 34327.3 hPa SW 11.9 km/h 11.9 km/h 53 % 0 mm
11:33 -1.4 °C -7.3 °C 34327.3 hPa South 4.2 km/h 6.3 km/h 53 % 0 mm
11:35 -0.4 °C -7.3 °C 34222.3 hPa SW 18.2 km/h 23.3 km/h 48 % 0 mm
11:38 -1.4 °C -7.3 °C 34327.3 hPa South 4.2 km/h 6.3 km/h 53 % 0 mm
11:43 -1.4 °C -7.3 °C 34327.3 hPa South 4.2 km/h 6.3 km/h 53 % 0 mm
11:45 -0.3 °C -7.4 °C 34222.3 hPa SW 20.8 km/h 25.9 km/h 47 % 0 mm
11:48 -1.4 °C -7.3 °C 34327.3 hPa South 4.2 km/h 6.3 km/h 53 % 0 mm
11:53 -1.4 °C -7.3 °C 34327.3 hPa South 4.2 km/h 6.3 km/h 53 % 0 mm
11:55 0 °C -7.3 °C 34222.3 hPa SW 7.7 km/h 12.9 km/h 46 % 0 mm
11:58 -1.4 °C -7.3 °C 34327.3 hPa South 4.2 km/h 6.3 km/h 53 % 0 mm
12:03 -1.4 °C -7.3 °C 34327.3 hPa South 4.2 km/h 6.3 km/h 53 % 0 mm
12:05 -0.3 °C -7.6 °C 34222.3 hPa SW 18.2 km/h 28.5 km/h 46 % 0 mm
12:08 -1.4 °C -7.3 °C 34327.3 hPa South 4.2 km/h 6.3 km/h 53 % 0 mm
12:13 -1.4 °C -7.3 °C 34327.3 hPa South 4.2 km/h 6.3 km/h 53 % 0 mm
12:15 -0.1 °C -7.5 °C 34222.3 hPa SSW 7.7 km/h 15.6 km/h 45 % 0 mm
12:18 -1.4 °C -7.3 °C 34327.3 hPa South 4.2 km/h 6.3 km/h 53 % 0 mm
12:23 -1.4 °C -7.3 °C 34327.3 hPa South 4.2 km/h 6.3 km/h 53 % 0 mm
12:25 -0.2 °C -7.7 °C 34198.6 hPa SSW 7.7 km/h 15.6 km/h 45 % 0 mm
12:28 -1.4 °C -7.3 °C 34327.3 hPa South 4.2 km/h 6.3 km/h 53 % 0 mm
12:33 -1.4 °C -7.3 °C 34327.3 hPa South 4.2 km/h 6.3 km/h 53 % 0 mm
12:35 -0.2 °C -7.9 °C 34198.6 hPa SW 7.7 km/h 25.9 km/h 44 % 0 mm
12:38 -1.4 °C -7.3 °C 34327.3 hPa South 4.2 km/h 6.3 km/h 53 % 0 mm
12:43 -1.4 °C -7.3 °C 34327.3 hPa South 4.2 km/h 6.3 km/h 53 % 0 mm
12:48 -1.4 °C -7.3 °C 34327.3 hPa South 4.2 km/h 6.3 km/h 53 % 0 mm
12:53 -1.4 °C -7.3 °C 34327.3 hPa South 4.2 km/h 6.3 km/h 53 % 0 mm
12:55 -0.3 °C -8.4 °C 34198.6 hPa SW 15.6 km/h 23.3 km/h 42 % 0 mm
12:58 -1.4 °C -7.3 °C 34327.3 hPa South 4.2 km/h 6.3 km/h 53 % 0 mm
13:03 -1.4 °C -7.3 °C 34327.3 hPa South 4.2 km/h 6.3 km/h 53 % 0 mm
13:05 -0.3 °C -8.8 °C 34198.6 hPa SSW 7.7 km/h 18.2 km/h 40 % 0 mm
13:08 -1.4 °C -7.3 °C 34327.3 hPa South 4.2 km/h 6.3 km/h 53 % 0 mm
13:13 -1.4 °C -7.3 °C 34327.3 hPa South 4.2 km/h 6.3 km/h 53 % 0 mm
13:15 -0.4 °C -9.1 °C 34198.6 hPa SW 12.9 km/h 20.8 km/h 39 % 0 mm
13:18 -1.4 °C -7.3 °C 34327.3 hPa South 4.2 km/h 6.3 km/h 53 % 0 mm
13:23 -1.4 °C -7.3 °C 34327.3 hPa South 4.2 km/h 6.3 km/h 53 % 0 mm
13:25 -0.4 °C -9.1 °C 34198.6 hPa SW 7.7 km/h 28.5 km/h 39 % 0 mm
13:28 -1.4 °C -7.3 °C 34327.3 hPa South 4.2 km/h 6.3 km/h 53 % 0 mm
13:33 -1.4 °C -7.3 °C 34327.3 hPa South 4.2 km/h 6.3 km/h 53 % 0 mm
13:35 -0.4 °C -9.3 °C 34198.6 hPa SSW 15.6 km/h 20.8 km/h 38 % 0 mm
13:38 -1.4 °C -7.3 °C 34327.3 hPa South 4.2 km/h 6.3 km/h 53 % 0 mm
13:43 -1.4 °C -7.3 °C 34327.3 hPa South 4.2 km/h 6.3 km/h 53 % 0 mm
13:45 -0.6 °C -9.2 °C 34198.6 hPa SW 5.1 km/h 20.8 km/h 39 % 0 mm
13:48 -1.4 °C -7.3 °C 34327.3 hPa South 4.2 km/h 6.3 km/h 53 % 0 mm
13:53 -1.4 °C -7.3 °C 34327.3 hPa South 4.2 km/h 6.3 km/h 53 % 0 mm
13:55 -0.9 °C -9.3 °C 34198.6 hPa SW 12.9 km/h 12.9 km/h 40 % 0 mm
13:58 -1.4 °C -7.3 °C 34327.3 hPa South 4.2 km/h 6.3 km/h 53 % 0 mm
14:03 -1.4 °C -7.3 °C 34327.3 hPa South 4.2 km/h 6.3 km/h 53 % 0 mm
14:05 -0.8 °C -9.2 °C 34198.6 hPa SW 7.7 km/h 20.8 km/h 40 % 0 mm
14:08 -1.4 °C -7.3 °C 34327.3 hPa South 4.2 km/h 6.3 km/h 53 % 0 mm
14:13 -1.4 °C -7.3 °C 34327.3 hPa South 4.2 km/h 6.3 km/h 53 % 0 mm
14:15 -1.2 °C -9.2 °C 34198.6 hPa SW 7.7 km/h 18.2 km/h 42 % 0 mm
14:18 -1.4 °C -7.3 °C 34327.3 hPa South 4.2 km/h 6.3 km/h 53 % 0 mm
14:23 -1.4 °C -7.3 °C 34327.3 hPa South 4.2 km/h 6.3 km/h 53 % 0 mm
14:25 -1.4 °C -9.3 °C 34198.6 hPa SW 7.7 km/h 18.2 km/h 42 % 0 mm
14:28 -1.4 °C -7.3 °C 34327.3 hPa South 4.2 km/h 6.3 km/h 53 % 0 mm
14:33 -1.4 °C -7.3 °C 34327.3 hPa South 4.2 km/h 6.3 km/h 53 % 0 mm
14:35 -1.7 °C -9.2 °C 34198.6 hPa SW 12.9 km/h 12.9 km/h 44 % 0 mm
14:38 -1.4 °C -7.3 °C 34327.3 hPa South 4.2 km/h 6.3 km/h 53 % 0 mm
14:43 -1.4 °C -7.3 °C 34327.3 hPa South 4.2 km/h 6.3 km/h 53 % 0 mm
14:45 -1.9 °C -9 °C 34198.6 hPa SSW 7.7 km/h 7.7 km/h 46 % 0 mm
14:48 -1.4 °C -7.3 °C 34327.3 hPa South 4.2 km/h 6.3 km/h 53 % 0 mm
14:53 -1.4 °C -7.3 °C 34327.3 hPa South 4.2 km/h 6.3 km/h 53 % 0 mm
14:55 -1.9 °C -8.8 °C 34164.7 hPa SSW 5.1 km/h 7.7 km/h 47 % 0 mm
14:58 -1.4 °C -7.3 °C 34327.3 hPa South 4.2 km/h 6.3 km/h 53 % 0 mm
15:03 -1.4 °C -7.3 °C 34327.3 hPa South 4.2 km/h 6.3 km/h 53 % 0 mm
15:05 -2.2 °C -8.8 °C 34198.6 hPa SSW 7.7 km/h 15.6 km/h 48 % 0 mm
15:08 -1.4 °C -7.3 °C 34327.3 hPa South 4.2 km/h 6.3 km/h 53 % 0 mm
15:13 -1.4 °C -7.3 °C 34327.3 hPa South 4.2 km/h 6.3 km/h 53 % 0 mm
15:15 -2.3 °C -8.7 °C 34198.6 hPa SSW 5.1 km/h 12.9 km/h 50 % 0 mm
15:18 -1.4 °C -7.3 °C 34327.3 hPa South 4.2 km/h 6.3 km/h 53 % 0 mm
15:23 -1.4 °C -7.3 °C 34327.3 hPa South 4.2 km/h 6.3 km/h 53 % 0 mm
15:25 -2.4 °C -8.5 °C 34198.6 hPa SSW 2.6 km/h 15.6 km/h 51 % 0 mm
15:28 -1.4 °C -7.3 °C 34327.3 hPa South 4.2 km/h 6.3 km/h 53 % 0 mm
15:34 -1.4 °C -7.3 °C 34327.3 hPa South 4.2 km/h 6.3 km/h 53 % 0 mm
15:35 -2.7 °C -8.6 °C 34198.6 hPa SSW 5.1 km/h 5.1 km/h 52 % 0 mm
15:38 -1.4 °C -7.3 °C 34327.3 hPa South 4.2 km/h 6.3 km/h 53 % 0 mm
15:44 -1.4 °C -7.3 °C 34327.3 hPa South 4.2 km/h 6.3 km/h 53 % 0 mm
15:45 -2.8 °C -8.6 °C 34198.6 hPa SW 7.7 km/h 10.3 km/h 53 % 0 mm
15:49 -1.4 °C -7.3 °C 34327.3 hPa South 4.2 km/h 6.3 km/h 53 % 0 mm
15:54 -1.4 °C -7.3 °C 34327.3 hPa South 4.2 km/h 6.3 km/h 53 % 0 mm
15:55 -2.9 °C -8.3 °C 34164.7 hPa SW 2.6 km/h 10.3 km/h 55 % 0 mm
15:59 -1.4 °C -7.3 °C 34327.3 hPa South 4.2 km/h 6.3 km/h 53 % 0 mm
16:04 -1.4 °C -7.3 °C 34327.3 hPa South 4.2 km/h 6.3 km/h 53 % 0 mm
16:05 -3 °C -8.1 °C 34198.6 hPa SW 7.7 km/h 7.7 km/h 57 % 0 mm
16:09 -1.4 °C -7.3 °C 34327.3 hPa South 4.2 km/h 6.3 km/h 53 % 0 mm
16:14 -1.4 °C -7.3 °C 34327.3 hPa South 4.2 km/h 6.3 km/h 53 % 0 mm
16:15 -3.1 °C -7.9 °C 34198.6 hPa SW 2.6 km/h 7.7 km/h 59 % 0 mm
16:19 -1.4 °C -7.3 °C 34327.3 hPa South 4.2 km/h 6.3 km/h 53 % 0 mm
16:24 -1.4 °C -7.3 °C 34327.3 hPa South 4.2 km/h 6.3 km/h 53 % 0 mm
16:29 -1.4 °C -7.3 °C 34327.3 hPa South 4.2 km/h 6.3 km/h 53 % 0 mm
16:34 -1.4 °C -7.3 °C 34327.3 hPa South 4.2 km/h 6.3 km/h 53 % 0 mm
16:35 -3.4 °C -7.9 °C 34222.3 hPa SW 5.1 km/h 7.7 km/h 61 % 0 mm
16:39 -1.4 °C -7.3 °C 34327.3 hPa South 4.2 km/h 6.3 km/h 53 % 0 mm
16:44 -1.4 °C -7.3 °C 34327.3 hPa South 4.2 km/h 6.3 km/h 53 % 0 mm
16:45 -3.4 °C -7.8 °C 34222.3 hPa SW 5.1 km/h 7.7 km/h 62 % 0 mm
16:49 -1.4 °C -7.3 °C 34327.3 hPa South 4.2 km/h 6.3 km/h 53 % 0 mm
16:54 -1.4 °C -7.3 °C 34327.3 hPa South 4.2 km/h 6.3 km/h 53 % 0 mm
16:55 -3.6 °C -7.6 °C 34198.6 hPa SW 2.6 km/h 10.3 km/h 64 % 0 mm
16:59 -1.4 °C -7.3 °C 34327.3 hPa South 4.2 km/h 6.3 km/h 53 % 0 mm
17:04 -1.4 °C -7.3 °C 34327.3 hPa South 4.2 km/h 6.3 km/h 53 % 0 mm
17:05 -3.6 °C -7.7 °C 34198.6 hPa SW 5.1 km/h 7.7 km/h 64 % 0 mm
17:09 -1.4 °C -7.3 °C 34327.3 hPa South 4.2 km/h 6.3 km/h 53 % 0 mm
17:14 -1.4 °C -7.3 °C 34327.3 hPa South 4.2 km/h 6.3 km/h 53 % 0 mm
17:15 -3.7 °C -7.6 °C 34198.6 hPa Calm   2.6 km/h 65 % 0 mm
17:19 -1.4 °C -7.3 °C 34327.3 hPa South 4.2 km/h 6.3 km/h 53 % 0 mm
17:24 -1.4 °C -7.3 °C 34327.3 hPa South 4.2 km/h 6.3 km/h 53 % 0 mm
17:25 -3.7 °C -7.5 °C 34198.6 hPa Calm   2.6 km/h 66 % 0 mm
17:29 -1.4 °C -7.3 °C 34327.3 hPa South 4.2 km/h 6.3 km/h 53 % 0 mm
17:34 -1.4 °C -7.3 °C 34327.3 hPa South 4.2 km/h 6.3 km/h 53 % 0 mm
17:35 -3.7 °C -7.5 °C 34198.6 hPa Calm   2.6 km/h 66 % 0 mm
17:39 -1.4 °C -7.3 °C 34327.3 hPa South 4.2 km/h 6.3 km/h 53 % 0 mm
17:44 -1.4 °C -7.3 °C 34327.3 hPa South 4.2 km/h 6.3 km/h 53 % 0 mm
17:45 -3.7 °C -7.5 °C 34198.6 hPa SW 2.6 km/h 5.1 km/h 66 % 0 mm
17:49 -1.4 °C -7.3 °C 34327.3 hPa South 4.2 km/h 6.3 km/h 53 % 0 mm
17:54 -1.4 °C -7.3 °C 34327.3 hPa South 4.2 km/h 6.3 km/h 53 % 0 mm
17:55 -3.8 °C -7.4 °C 34198.6 hPa Calm   5.1 km/h 67 % 0 mm
17:59 -1.4 °C -7.3 °C 34327.3 hPa South 4.2 km/h 6.3 km/h 53 % 0 mm
18:04 -1.4 °C -7.3 °C 34327.3 hPa South 4.2 km/h 6.3 km/h 53 % 0 mm
18:05 -3.8 °C -7.3 °C 34198.6 hPa Calm   5.1 km/h 68 % 0 mm
18:09 -1.4 °C -7.3 °C 34327.3 hPa South 4.2 km/h 6.3 km/h 53 % 0 mm
18:14 -1.4 °C -7.3 °C 34327.3 hPa South 4.2 km/h 6.3 km/h 53 % 0 mm
18:15 -3.8 °C -7.3 °C 34198.6 hPa WSW 2.6 km/h 5.1 km/h 68 % 0 mm
18:19 -1.4 °C -7.3 °C 34327.3 hPa South 4.2 km/h 6.3 km/h 53 % 0 mm
18:24 -1.4 °C -7.3 °C 34327.3 hPa South 4.2 km/h 6.3 km/h 53 % 0 mm
18:25 -3.8 °C -7.1 °C 34198.6 hPa WSW 2.6 km/h 2.6 km/h 70 % 0 mm
18:29 -1.4 °C -7.3 °C 34327.3 hPa South 4.2 km/h 6.3 km/h 53 % 0 mm
18:34 -1.4 °C -7.3 °C 34327.3 hPa South 4.2 km/h 6.3 km/h 53 % 0 mm
18:39 -1.4 °C -7.3 °C 34327.3 hPa South 4.2 km/h 6.3 km/h 53 % 0 mm
18:44 -1.4 °C -7.3 °C 34327.3 hPa South 4.2 km/h 6.3 km/h 53 % 0 mm
18:49 -1.4 °C -7.3 °C 34327.3 hPa South 4.2 km/h 6.3 km/h 53 % 0 mm
18:54 -1.4 °C -7.3 °C 34327.3 hPa South 4.2 km/h 6.3 km/h 53 % 0 mm
18:59 -1.4 °C -7.3 °C 34327.3 hPa South 4.2 km/h 6.3 km/h 53 % 0 mm
19:04 -1.4 °C -7.3 °C 34327.3 hPa South 4.2 km/h 6.3 km/h 53 % 0 mm
19:09 -1.4 °C -7.3 °C 34327.3 hPa South 4.2 km/h 6.3 km/h 53 % 0 mm
19:14 -1.4 °C -7.3 °C 34327.3 hPa South 4.2 km/h 6.3 km/h 53 % 0 mm
19:19 -1.4 °C -7.3 °C 34327.3 hPa South 4.2 km/h 6.3 km/h 53 % 0 mm
19:24 -1.4 °C -7.3 °C 34327.3 hPa South 4.2 km/h 6.3 km/h 53 % 0 mm
19:25 -3.9 °C -7.1 °C 34198.6 hPa NNE 2.6 km/h 5.1 km/h 71 % 0 mm
19:29 -1.4 °C -7.3 °C 34327.3 hPa South 4.2 km/h 6.3 km/h 53 % 0 mm
19:34 -1.4 °C -7.3 °C 34327.3 hPa South 4.2 km/h 6.3 km/h 53 % 0 mm
19:35 -3.9 °C -7.1 °C 34198.6 hPa SSE 2.6 km/h 5.1 km/h 71 % 0 mm
19:39 -1.4 °C -7.3 °C 34327.3 hPa South 4.2 km/h 6.3 km/h 53 % 0 mm
19:44 -1.4 °C -7.3 °C 34327.3 hPa South 4.2 km/h 6.3 km/h 53 % 0 mm
19:45 -3.9 °C -6.9 °C 34198.6 hPa ENE 5.1 km/h 5.1 km/h 72 % 0 mm
19:49 -1.4 °C -7.3 °C 34327.3 hPa South 4.2 km/h 6.3 km/h 53 % 0 mm
19:54 -1.4 °C -7.3 °C 34327.3 hPa South 4.2 km/h 6.3 km/h 53 % 0 mm
19:55 -3.9 °C -6.9 °C 34164.7 hPa NE 7.7 km/h 10.3 km/h 72 % 0 mm
19:59 -1.4 °C -7.3 °C 34327.3 hPa South 4.2 km/h 6.3 km/h 53 % 0 mm
20:04 -1.4 °C -7.3 °C 34327.3 hPa South 4.2 km/h 6.3 km/h 53 % 0 mm
20:05 -3.9 °C -6.8 °C 34164.7 hPa NNE 7.7 km/h 10.3 km/h 73 % 0 mm
20:09 -1.4 °C -7.3 °C 34327.3 hPa South 4.2 km/h 6.3 km/h 53 % 0 mm
20:14 -1.4 °C -7.3 °C 34327.3 hPa South 4.2 km/h 6.3 km/h 53 % 0 mm
20:15 -3.9 °C -6.8 °C 34164.7 hPa NE 5.1 km/h 7.7 km/h 73 % 0 mm
20:19 -1.4 °C -7.3 °C 34327.3 hPa South 4.2 km/h 6.3 km/h 53 % 0 mm
20:24 -1.4 °C -7.3 °C 34327.3 hPa South 4.2 km/h 6.3 km/h 53 % 0 mm
20:25 -3.9 °C -6.7 °C 34130.9 hPa NE 5.1 km/h 10.3 km/h 74 % 0 mm
20:29 -1.4 °C -7.3 °C 34327.3 hPa South 4.2 km/h 6.3 km/h 53 % 0 mm
20:34 -1.4 °C -7.3 °C 34327.3 hPa South 4.2 km/h 6.3 km/h 53 % 0 mm
20:35 -3.9 °C -6.7 °C 34130.9 hPa ENE 5.1 km/h 7.7 km/h 74 % 0 mm
20:39 -1.4 °C -7.3 °C 34327.3 hPa South 4.2 km/h 6.3 km/h 53 % 0 mm
20:44 -1.4 °C -7.3 °C 34327.3 hPa South 4.2 km/h 6.3 km/h 53 % 0 mm
20:45 -3.9 °C -6.6 °C 34130.9 hPa ENE 5.1 km/h 7.7 km/h 75 % 0 mm
20:49 -1.4 °C -7.3 °C 34327.3 hPa South 4.2 km/h 6.3 km/h 53 % 0 mm
20:50 -1.4 °C -7.3 °C 34327.3 hPa South 4.2 km/h 6.3 km/h 53 % 0 mm
20:55 -1.4 °C -7.3 °C 34327.3 hPa South 4.2 km/h 6.3 km/h 53 % 0 mm
21:00 -1.4 °C -7.3 °C 34327.3 hPa South 4.2 km/h 6.3 km/h 53 % 0 mm
21:05 -1.4 °C -7.3 °C 34327.3 hPa South 4.2 km/h 6.3 km/h 53 % 0 mm
21:10 -1.4 °C -7.3 °C 34327.3 hPa South 4.2 km/h 6.3 km/h 53 % 0 mm
21:15 -1.4 °C -7.3 °C 34327.3 hPa South 4.2 km/h 6.3 km/h 53 % 0 mm
21:20 -1.4 °C -7.3 °C 34327.3 hPa South 4.2 km/h 6.3 km/h 53 % 0 mm
21:25 -1.4 °C -7.3 °C 34327.3 hPa South 4.2 km/h 6.3 km/h 53 % 0 mm
21:30 -1.4 °C -7.3 °C 34327.3 hPa South 4.2 km/h 6.3 km/h 53 % 0 mm
21:35 -1.4 °C -7.3 °C 34327.3 hPa South 4.2 km/h 6.3 km/h 53 % 0 mm
21:40 -1.4 °C -7.3 °C 34327.3 hPa South 4.2 km/h 6.3 km/h 53 % 0 mm
21:45 -1.4 °C -7.3 °C 34327.3 hPa South 4.2 km/h 6.3 km/h 53 % 0 mm
21:50 -1.4 °C -7.3 °C 34327.3 hPa South 4.2 km/h 6.3 km/h 53 % 0 mm
21:55 -1.4 °C -7.3 °C 34327.3 hPa South 4.2 km/h 6.3 km/h 53 % 0 mm
22:00 -1.4 °C -7.3 °C 34327.3 hPa South 4.2 km/h 6.3 km/h 53 % 0 mm
22:05 -1.4 °C -7.3 °C 34327.3 hPa South 4.2 km/h 6.3 km/h 53 % 0 mm
22:10 -1.4 °C -7.3 °C 34327.3 hPa South 4.2 km/h 6.3 km/h 53 % 0 mm
22:15 -1.4 °C -7.3 °C 34327.3 hPa South 4.2 km/h 6.3 km/h 53 % 0 mm
22:20 -1.4 °C -7.3 °C 34327.3 hPa South 4.2 km/h 6.3 km/h 53 % 0 mm
22:25 -1.4 °C -7.3 °C 34327.3 hPa South 4.2 km/h 6.3 km/h 53 % 0 mm
22:30 -1.4 °C -7.3 °C 34327.3 hPa South 4.2 km/h 6.3 km/h 53 % 0 mm
22:35 -1.4 °C -7.3 °C 34327.3 hPa South 4.2 km/h 6.3 km/h 53 % 0 mm
22:40 -1.4 °C -7.3 °C 34327.3 hPa South 4.2 km/h 6.3 km/h 53 % 0 mm
22:45 -1.4 °C -7.3 °C 34327.3 hPa South 4.2 km/h 6.3 km/h 53 % 0 mm
22:50 -1.4 °C -7.3 °C 34327.3 hPa South 4.2 km/h 6.3 km/h 53 % 0 mm
22:55 -1.4 °C -7.3 °C 34327.3 hPa South 4.2 km/h 6.3 km/h 53 % 0 mm
23:00 -1.4 °C -7.3 °C 34327.3 hPa South 4.2 km/h 6.3 km/h 53 % 0 mm
23:05 -1.4 °C -7.3 °C 34327.3 hPa South 4.2 km/h 6.3 km/h 53 % 0 mm
23:10 -1.4 °C -7.3 °C 34327.3 hPa South 4.2 km/h 6.3 km/h 53 % 0 mm
23:15 -1.4 °C -7.3 °C 34327.3 hPa South 4.2 km/h 6.3 km/h 53 % 0 mm
23:20 -1.4 °C -7.3 °C 34327.3 hPa South 4.2 km/h 6.3 km/h 53 % 0 mm
23:25 -1.4 °C -7.3 °C 34327.3 hPa South 4.2 km/h 6.3 km/h 53 % 0 mm
23:33 -3.8 °C -7.1 °C 34198.6 hPa ENE 3.1 km/h 3.1 km/h 70 % 0 mm
23:35 -3.9 °C -6.1 °C 34097 hPa NE 5.1 km/h 7.7 km/h 79 % 0 mm
23:38 -3.8 °C -7.1 °C 34198.6 hPa ENE 4.2 km/h 4.2 km/h 70 % 0 mm
23:43 -3.9 °C -7.1 °C 34198.6 hPa SSW 3.1 km/h   70 % 0 mm
23:45 -3.9 °C -6.2 °C 34097 hPa NE 12.9 km/h 18.2 km/h 78 % 0 mm
23:48 -3.9 °C -7.1 °C 34198.6 hPa ENE 4.2 km/h 4.2 km/h 70 % 0 mm
23:53 -3.8 °C -7.1 °C 34198.6 hPa NNE 6.3 km/h 6.3 km/h 70 % 0 mm
23:55 -3.9 °C -6.1 °C 34097 hPa NNE 5.1 km/h 12.9 km/h 79 % 0 mm
23:58 -3.9 °C -7.1 °C 34198.6 hPa NE 9 km/h 9 km/h 70 % 0 mm
Meteo Sesrovires
Elogis d' Weather Underground - 1.75 mb

Guio original per  Jim McMurry - jmcmurry@mwt.net Adaptat per a la plantilla per  Wim van der Kuil - Leuven-Template.eu

Trobareu la nostra informacio del temps tambe a:

Weather Underground

AWEKAS